NMSU Turfgrass Station

2020-08-10 12:00:00

  • imperial
Date Time Air Temperature Relative Humidity Dewpoint Heat Index Wind Speed Wind Dir. Rain Solar Radiation Soil Temperature Soil Temperature
5cm 20cm
US/Mountain F % F F MPH deg in MJ/m^2 F F
max min avg max min max avg avg max min avg max min avg
2020-08-09 14:00:00 94.2 95.4 91.9 94.1 34.6 25.0 16.1 46.1 94.2 8.3 3.1 222.5 0.00 3.2424940 82.3 81.9 82.1 82.3 81.9 82.1
2020-08-09 15:00:00 97.8 98.9 94.0 96.8 36.5 22.4 14.0 42.6 97.8 9.1 2.7 46.4 0.00 3.1092820 82.8 82.3 82.5 82.8 82.3 82.5
2020-08-09 16:00:00 98.9 99.1 97.0 98.0 37.2 18.8 13.0 42.8 98.9 9.9 4.1 227.1 0.00 2.9574030 83.3 82.8 83.0 83.3 82.8 83.0
2020-08-09 17:00:00 97.8 99.1 95.1 97.4 36.6 19.8 13.8 41.7 97.8 11.9 5.1 230.6 0.00 2.1810570 83.7 83.3 83.5 83.7 83.3 83.5
2020-08-09 18:00:00 98.3 99.4 97.5 98.4 36.8 15.7 13.3 40.0 98.3 7.4 3.0 281.4 0.00 1.4290810 84.1 83.7 83.9 84.1 83.7 83.9
2020-08-09 19:00:00 94.8 98.5 94.4 96.3 34.9 17.6 13.0 39.6 94.8 5.5 1.7 264.2 0.00 0.3446749 84.3 84.1 84.2 84.3 84.1 84.2
2020-08-09 20:00:00 90.4 94.9 90.1 91.7 32.4 29.0 15.0 43.9 90.4 14.7 2.1 259.1 0.00 0.0368203 84.3 84.3 84.3 84.3 84.3 84.3
2020-08-09 21:00:00 90.3 90.8 89.8 90.2 32.4 20.6 17.5 41.0 90.3 15.3 6.4 325.2 0.00 0.0006307 84.3 84.1 84.2 84.3 84.1 84.2
2020-08-09 22:00:00 88.4 90.4 88.3 89.1 31.3 21.8 15.1 41.4 88.4 8.3 3.3 24.6 0.00 0.0000000 84.1 83.8 83.9 84.1 83.8 83.9
2020-08-09 23:00:00 86.6 88.9 86.3 88.1 30.3 23.4 18.2 44.4 86.6 8.6 2.9 50.9 0.00 0.0000000 83.8 83.4 83.6 83.8 83.4 83.6
2020-08-10 00:00:00 86.4 86.9 82.9 85.5 30.2 28.8 21.9 43.9 86.4 5.2 2.1 35.3 0.00 0.0000000 83.4 83.1 83.2 83.4 83.1 83.2
2020-08-10 01:00:00 92.7 93.2 84.4 88.0 33.7 27.3 13.1 36.2 92.7 12.5 3.2 335.4 0.00 0.0000000 83.1 82.8 82.9 83.1 82.8 82.9
2020-08-10 02:00:00 87.4 94.1 87.4 91.4 30.8 21.4 11.8 42.8 87.4 10.9 4.4 78.1 0.00 0.0000000 82.8 82.5 82.7 82.8 82.5 82.7
2020-08-10 03:00:00 82.8 87.4 79.8 83.0 28.2 32.0 21.0 46.1 82.8 8.1 3.1 108.8 0.00 0.0000000 82.5 82.3 82.4 82.5 82.3 82.4
2020-08-10 04:00:00 78.2 82.8 78.0 79.9 25.7 35.6 27.3 47.2 78.2 3.4 1.6 344.8 0.00 0.0000020 82.3 82.1 82.2 82.3 82.1 82.2
2020-08-10 05:00:00 76.8 79.3 76.7 77.8 24.9 38.8 32.8 49.1 76.8 7.7 3.2 88.5 0.00 0.0000000 82.1 81.8 82.0 82.1 81.8 82.0
2020-08-10 06:00:00 73.7 76.8 73.7 75.0 23.2 43.9 36.6 50.3 73.7 5.0 1.7 274.1 0.00 0.0000542 81.9 81.6 81.7 81.9 81.6 81.7
2020-08-10 07:00:00 74.2 74.5 72.8 73.4 23.5 45.9 39.9 50.6 74.2 2.4 0.9 296.2 0.00 0.0471932 81.6 81.3 81.5 81.6 81.3 81.5
2020-08-10 08:00:00 81.6 83.8 74.1 78.3 27.6 46.3 29.5 50.8 81.6 1.9 0.8 244.5 0.00 0.5930997 81.3 81.1 81.2 81.3 81.1 81.2
2020-08-10 09:00:00 81.1 83.9 80.4 81.8 27.3 41.7 30.6 51.7 81.1 4.8 1.9 208.7 0.00 1.3255970 81.1 81.0 81.0 81.1 81.0 81.0
2020-08-10 10:00:00 86.7 86.7 80.8 83.4 30.4 41.4 31.8 53.6 86.7 6.0 2.3 229.3 0.00 2.0137040 81.0 81.0 81.0 81.0 81.0 81.0
2020-08-10 11:00:00 88.7 89.5 85.7 87.3 31.5 34.4 26.9 53.2 88.7 6.7 3.3 219.9 0.00 2.5862360 81.2 81.0 81.1 81.2 81.0 81.1
2020-08-10 12:00:00 91.8 91.9 88.7 90.6 33.2 33.1 22.6 50.7 91.8 9.5 3.2 197.7 0.00 2.9977140 81.5 81.1 81.3 81.5 81.1 81.3

Data is courtesy of the NM Climate Center and other weather station network operators. DO NOT USE IN LEGAL PROCEEDINGS